createdAt,value
2018-09-03T00:00:40.494Z,0
2018-09-03T00:01:42.337Z,0
2018-09-03T00:02:44.536Z,0
2018-09-03T00:03:46.827Z,0
2018-09-03T00:04:48.604Z,0
2018-09-03T00:05:50.383Z,0
2018-09-03T00:06:52.112Z,0
2018-09-03T00:07:54.348Z,0
2018-09-03T00:08:56.664Z,0
2018-09-03T00:09:58.416Z,0
2018-09-03T00:11:00.170Z,0
2018-09-03T00:12:02.425Z,0
2018-09-03T00:13:04.048Z,0
2018-09-03T00:14:05.775Z,0
2018-09-03T00:15:08.029Z,0
2018-09-03T00:16:10.158Z,0
2018-09-03T00:17:11.977Z,0
2018-09-03T00:18:13.788Z,0
2018-09-03T00:19:15.964Z,0
2018-09-03T00:20:17.596Z,0
2018-09-03T00:21:19.859Z,0
2018-09-03T00:22:21.530Z,0
2018-09-03T00:23:23.833Z,0
2018-09-03T00:24:25.588Z,0
2018-09-03T00:25:27.366Z,0
2018-09-03T00:26:29.537Z,0
2018-09-03T00:27:31.344Z,0
2018-09-03T00:28:33.461Z,0
2018-09-03T00:29:35.728Z,0
2018-09-03T00:30:37.429Z,0
2018-09-03T00:31:39.613Z,0
2018-09-03T00:32:41.673Z,0
2018-09-03T00:33:43.987Z,0
2018-09-03T00:34:45.784Z,0
2018-09-03T00:35:47.453Z,0
2018-09-03T00:36:49.805Z,0
2018-09-03T00:37:52.162Z,0
2018-09-03T00:38:54.354Z,0
2018-09-03T00:39:56.635Z,0
2018-09-03T00:40:58.876Z,0
2018-09-03T00:42:01.342Z,0
2018-09-03T00:43:03.689Z,0
2018-09-03T00:44:05.747Z,0
2018-09-03T00:45:07.882Z,0
2018-09-03T00:46:09.478Z,0
2018-09-03T00:47:11.199Z,0
2018-09-03T00:48:13.325Z,0
2018-09-03T00:49:15.581Z,0
2018-09-03T00:50:17.747Z,0
2018-09-03T00:51:19.950Z,0
2018-09-03T00:52:21.694Z,0
2018-09-03T00:53:23.563Z,0
2018-09-03T00:54:25.711Z,0
2018-09-03T00:55:27.396Z,0
2018-09-03T00:56:29.543Z,0
2018-09-03T00:57:31.599Z,0
2018-09-03T00:58:33.771Z,0
2018-09-03T00:59:35.981Z,0
2018-09-03T01:00:38.085Z,0
2018-09-03T01:01:39.914Z,0
2018-09-03T01:02:41.680Z,0
2018-09-03T01:03:43.375Z,0
2018-09-03T01:04:45.123Z,0
2018-09-03T01:05:47.271Z,0
2018-09-03T01:06:49.664Z,0
2018-09-03T01:07:51.736Z,0
2018-09-03T01:08:53.844Z,0
2018-09-03T01:09:55.641Z,0
2018-09-03T01:10:57.749Z,0
2018-09-03T01:11:59.960Z,0
2018-09-03T01:13:01.711Z,0
2018-09-03T01:14:03.746Z,0
2018-09-03T01:15:05.726Z,0
2018-09-03T01:16:07.447Z,0
2018-09-03T01:17:09.757Z,0
2018-09-03T01:18:11.918Z,0
2018-09-03T01:19:13.686Z,0
2018-09-03T01:20:15.550Z,0
2018-09-03T01:21:17.809Z,0
2018-09-03T01:22:19.490Z,0
2018-09-03T01:23:21.289Z,0
2018-09-03T01:24:23.474Z,0
2018-09-03T01:25:25.591Z,0
2018-09-03T01:26:27.280Z,0
2018-09-03T01:27:29.548Z,0
2018-09-03T01:28:31.260Z,0
2018-09-03T01:29:33.063Z,0
2018-09-03T01:30:34.707Z,0
2018-09-03T01:31:36.525Z,0
2018-09-03T01:32:38.282Z,0
2018-09-03T01:33:40.493Z,0
2018-09-03T01:34:42.476Z,0
2018-09-03T01:35:44.627Z,0
2018-09-03T01:36:46.822Z,0
2018-09-03T01:37:49.082Z,0
2018-09-03T01:38:51.399Z,0
2018-09-03T01:39:53.689Z,0
2018-09-03T01:40:55.374Z,0
2018-09-03T01:41:57.087Z,0
2018-09-03T01:42:58.940Z,0
2018-09-03T01:44:01.047Z,0
2018-09-03T01:45:03.204Z,0
2018-09-03T01:46:04.835Z,0
2018-09-03T01:47:07.214Z,0
2018-09-03T01:48:08.944Z,0
2018-09-03T01:49:11.125Z,0
2018-09-03T01:50:13.976Z,0
2018-09-03T01:51:16.368Z,0
2018-09-03T01:52:18.497Z,0
2018-09-03T01:53:20.812Z,0
2018-09-03T01:54:22.760Z,0
2018-09-03T01:55:25.092Z,0
2018-09-03T01:56:27.160Z,0
2018-09-03T01:57:29.497Z,0
2018-09-03T01:58:31.282Z,0
2018-09-03T01:59:32.981Z,0
2018-09-03T02:00:35.306Z,0
2018-09-03T02:01:37.547Z,0
2018-09-03T02:02:39.311Z,0
2018-09-03T02:03:41.474Z,0
2018-09-03T02:04:43.751Z,0
2018-09-03T02:05:45.495Z,0
2018-09-03T02:06:47.256Z,0
2018-09-03T02:07:49.335Z,0
2018-09-03T02:08:51.084Z,0
2018-09-03T02:09:52.730Z,0
2018-09-03T02:10:54.470Z,0
2018-09-03T02:11:56.233Z,0
2018-09-03T02:12:57.979Z,0
2018-09-03T02:14:00.230Z,0
2018-09-03T02:15:01.977Z,0
2018-09-03T02:16:04.071Z,0
2018-09-03T02:17:05.752Z,0
2018-09-03T02:18:07.518Z,0
2018-09-03T02:19:09.221Z,0
2018-09-03T02:20:10.911Z,0
2018-09-03T02:21:12.799Z,0
2018-09-03T02:22:15.079Z,0
2018-09-03T02:23:17.234Z,0
2018-09-03T02:24:19.429Z,0
2018-09-03T02:25:21.006Z,0
2018-09-03T02:26:23.133Z,0
2018-09-03T02:27:25.299Z,0
2018-09-03T02:28:27.057Z,0
2018-09-03T02:29:28.797Z,0
2018-09-03T02:30:30.539Z,0
2018-09-03T02:31:32.248Z,0
2018-09-03T02:32:34.183Z,0
2018-09-03T02:33:35.912Z,0
2018-09-03T02:34:37.630Z,0
2018-09-03T02:35:39.765Z,0
2018-09-03T02:36:41.391Z,0
2018-09-03T02:37:43.646Z,0
2018-09-03T02:38:45.831Z,0
2018-09-03T02:39:47.476Z,0
2018-09-03T02:40:49.561Z,0
2018-09-03T02:41:51.885Z,0
2018-09-03T02:42:53.514Z,0
2018-09-03T02:43:55.821Z,0
2018-09-03T02:44:57.453Z,0
2018-09-03T02:45:59.894Z,0
2018-09-03T02:47:01.996Z,0
2018-09-03T02:48:04.081Z,0
2018-09-03T02:49:05.742Z,0
2018-09-03T02:50:07.532Z,0
2018-09-03T02:51:09.265Z,0
2018-09-03T02:52:11.465Z,0
2018-09-03T02:53:13.197Z,0
2018-09-03T02:54:16.233Z,0
2018-09-03T02:55:17.611Z,0
2018-09-03T02:56:19.306Z,0
2018-09-03T02:57:21.388Z,0
2018-09-03T02:58:23.036Z,0
2018-09-03T02:59:25.077Z,0
2018-09-03T03:00:27.209Z,0
2018-09-03T03:01:29.348Z,0
2018-09-03T03:02:31.055Z,0
2018-09-03T03:03:33.360Z,0
2018-09-03T03:04:35.598Z,0
2018-09-03T03:05:37.225Z,0
2018-09-03T03:06:39.085Z,0
2018-09-03T03:07:41.209Z,0
2018-09-03T03:08:42.992Z,0
2018-09-03T03:09:45.150Z,0
2018-09-03T03:10:47.391Z,0
2018-09-03T03:11:49.641Z,0
2018-09-03T03:12:51.576Z,0
2018-09-03T03:13:53.193Z,0
2018-09-03T03:14:55.241Z,0
2018-09-03T03:15:57.603Z,0
2018-09-03T03:16:59.914Z,0
2018-09-03T03:18:01.711Z,0
2018-09-03T03:19:03.460Z,0
2018-09-03T03:20:05.766Z,0
2018-09-03T03:21:07.814Z,0
2018-09-03T03:22:09.570Z,0
2018-09-03T03:23:11.668Z,0
2018-09-03T03:24:13.322Z,0
2018-09-03T03:25:15.662Z,0
2018-09-03T03:26:17.740Z,0
2018-09-03T03:27:19.473Z,0
2018-09-03T03:28:21.655Z,0
2018-09-03T03:29:23.740Z,0
2018-09-03T03:30:25.720Z,0
2018-09-03T03:31:27.560Z,0
2018-09-03T03:32:29.548Z,0
2018-09-03T03:33:31.526Z,0
2018-09-03T03:34:33.782Z,0
2018-09-03T03:35:35.445Z,0
2018-09-03T03:36:37.567Z,0
2018-09-03T03:37:39.374Z,0
2018-09-03T03:38:41.755Z,0
2018-09-03T03:39:43.978Z,0
2018-09-03T03:40:46.278Z,0
2018-09-03T03:41:48.321Z,0
2018-09-03T03:42:50.471Z,0
2018-09-03T03:43:52.185Z,0
2018-09-03T03:44:53.863Z,0
2018-09-03T03:45:56.245Z,0
2018-09-03T03:46:58.420Z,0
2018-09-03T03:48:00.576Z,0
2018-09-03T03:49:02.730Z,0
2018-09-03T03:50:05.162Z,0
2018-09-03T03:51:07.476Z,0
2018-09-03T03:52:09.159Z,0
2018-09-03T03:53:10.896Z,0
2018-09-03T03:54:13.218Z,0
2018-09-03T03:55:15.369Z,0
2018-09-03T03:56:17.410Z,0
2018-09-03T03:57:19.169Z,0
2018-09-03T03:58:21.391Z,0
2018-09-03T03:59:22.982Z,0
2018-09-03T04:00:24.729Z,0
2018-09-03T04:01:27.058Z,0
2018-09-03T04:02:29.413Z,0
2018-09-03T04:03:31.119Z,0
2018-09-03T04:04:33.401Z,0
2018-09-03T04:05:35.629Z,0
2018-09-03T04:06:37.397Z,0
2018-09-03T04:07:39.588Z,0
2018-09-03T04:08:41.230Z,0
2018-09-03T04:09:42.968Z,0
2018-09-03T04:10:45.329Z,0
2018-09-03T04:11:47.016Z,0
2018-09-03T04:12:48.809Z,4
2018-09-03T04:13:50.501Z,4
2018-09-03T04:14:52.354Z,4
2018-09-03T04:15:54.434Z,0
2018-09-03T04:16:56.204Z,4
2018-09-03T04:17:58.306Z,4
2018-09-03T04:18:59.989Z,8
2018-09-03T04:20:02.305Z,4
2018-09-03T04:21:04.365Z,8
2018-09-03T04:22:06.604Z,8
2018-09-03T04:23:08.912Z,8
2018-09-03T04:24:10.480Z,8
2018-09-03T04:25:12.234Z,12
2018-09-03T04:26:14.521Z,12
2018-09-03T04:27:16.261Z,16
2018-09-03T04:28:17.935Z,16
2018-09-03T04:29:19.749Z,20
2018-09-03T04:30:21.496Z,20
2018-09-03T04:31:23.621Z,24
2018-09-03T04:32:25.339Z,28
2018-09-03T04:33:27.009Z,28
2018-09-03T04:34:29.063Z,36
2018-09-03T04:35:30.771Z,36
2018-09-03T04:36:32.549Z,36
2018-09-03T04:37:34.999Z,36
2018-09-03T04:38:37.207Z,44
2018-09-03T04:39:38.825Z,48
2018-09-03T04:40:40.993Z,56
2018-09-03T04:41:43.133Z,68
2018-09-03T04:42:45.254Z,72
2018-09-03T04:43:47.421Z,72
2018-09-03T04:44:49.650Z,80
2018-09-03T04:45:51.428Z,100
2018-09-03T04:46:53.641Z,112
2018-09-03T04:47:55.791Z,124
2018-09-03T04:48:57.513Z,124
2018-09-03T04:49:59.759Z,132
2018-09-03T04:51:01.481Z,128
2018-09-03T04:52:03.540Z,132
2018-09-03T04:53:05.699Z,144
2018-09-03T04:54:07.352Z,152
2018-09-03T04:55:09.639Z,180
2018-09-03T04:56:11.606Z,204
2018-09-03T04:57:13.352Z,224
2018-09-03T04:58:15.103Z,232
2018-09-03T04:59:16.839Z,248
2018-09-03T05:00:18.899Z,256
2018-09-03T05:01:20.668Z,260
2018-09-03T05:02:22.818Z,240
2018-09-03T05:03:24.540Z,220
2018-09-03T05:04:26.286Z,216
2018-09-03T05:05:28.365Z,220
2018-09-03T05:06:30.188Z,232
2018-09-03T05:07:32.430Z,244
2018-09-03T05:08:34.071Z,248
2018-09-03T05:09:35.794Z,252
2018-09-03T05:10:37.572Z,284
2018-09-03T05:11:39.402Z,348
2018-09-03T05:12:41.443Z,392
2018-09-03T05:13:43.737Z,412
2018-09-03T05:14:45.880Z,396
2018-09-03T05:15:47.969Z,400
2018-09-03T05:16:49.899Z,440
2018-09-03T05:17:52.131Z,428
2018-09-03T05:18:54.187Z,388
2018-09-03T05:19:55.937Z,348
2018-09-03T05:20:57.643Z,332
2018-09-03T05:21:59.326Z,392
2018-09-03T05:23:01.093Z,532
2018-09-03T05:24:02.999Z,664
2018-09-03T05:25:05.216Z,748
2018-09-03T05:26:07.379Z,788
2018-09-03T05:27:09.446Z,856
2018-09-03T05:28:11.489Z,976
2018-09-03T05:29:13.725Z,1080
2018-09-03T05:30:15.938Z,1064
2018-09-03T05:31:17.700Z,948
2018-09-03T05:32:19.363Z,916
2018-09-03T05:33:21.057Z,1004
2018-09-03T05:34:22.739Z,1068
2018-09-03T05:35:24.542Z,1104
2018-09-03T05:36:26.162Z,1104
2018-09-03T05:37:28.278Z,1056
2018-09-03T05:38:29.951Z,1024
2018-09-03T05:39:32.045Z,1008
2018-09-03T05:40:34.128Z,1072
2018-09-03T05:41:35.903Z,1212
2018-09-03T05:42:37.964Z,1256
2018-09-03T05:43:40.303Z,1156
2018-09-03T05:44:41.880Z,1044
2018-09-03T05:45:43.577Z,1088
2018-09-03T05:46:45.239Z,1276
2018-09-03T05:47:47.161Z,1336
2018-09-03T05:48:48.855Z,1280
2018-09-03T05:49:50.965Z,1344
2018-09-03T05:50:52.682Z,1388
2018-09-03T05:51:54.767Z,1280
2018-09-03T05:52:56.468Z,1052
2018-09-03T05:53:58.356Z,916
2018-09-03T05:55:00.206Z,896
2018-09-03T05:56:02.402Z,952
2018-09-03T05:57:04.440Z,972
2018-09-03T05:58:06.108Z,984
2018-09-03T05:59:08.117Z,1176
2018-09-03T06:00:09.980Z,1516
2018-09-03T06:01:12.276Z,1528
2018-09-03T06:02:14.097Z,1380
2018-09-03T06:03:15.913Z,1456
2018-09-03T06:04:17.729Z,1592
2018-09-03T06:05:19.588Z,1856
2018-09-03T06:06:21.319Z,2108
2018-09-03T06:07:23.089Z,2040
2018-09-03T06:08:24.721Z,1784
2018-09-03T06:09:26.453Z,1764
2018-09-03T06:10:28.302Z,2264
2018-09-03T06:11:29.932Z,3316
2018-09-03T06:12:31.888Z,4052
2018-09-03T06:13:33.558Z,3960
2018-09-03T06:14:35.464Z,3736
2018-09-03T06:15:37.446Z,3624
2018-09-03T06:16:39.337Z,3484
2018-09-03T06:17:41.376Z,3420
2018-09-03T06:18:42.995Z,3496
2018-09-03T06:19:44.897Z,3428
2018-09-03T06:20:46.643Z,3188
2018-09-03T06:21:48.584Z,3104
2018-09-03T06:22:50.834Z,3044
2018-09-03T06:23:52.642Z,3560
2018-09-03T06:24:54.496Z,4360
2018-09-03T06:25:56.596Z,4548
2018-09-03T06:26:58.250Z,4084
2018-09-03T06:27:59.937Z,3216
2018-09-03T06:29:02.041Z,2260
2018-09-03T06:30:04.001Z,2180
2018-09-03T06:31:05.961Z,2616
2018-09-03T06:32:07.748Z,2968
2018-09-03T06:33:09.472Z,3268
2018-09-03T06:34:11.399Z,3412
2018-09-03T06:35:13.619Z,2900
2018-09-03T06:36:15.377Z,2272
2018-09-03T06:37:17.233Z,2188
2018-09-03T06:38:18.973Z,2416
2018-09-03T06:39:20.855Z,2224
2018-09-03T06:40:22.955Z,1848
2018-09-03T06:41:24.652Z,1784
2018-09-03T06:42:26.426Z,1868
2018-09-03T06:43:28.705Z,1904
2018-09-03T06:44:30.816Z,1676
2018-09-03T06:45:32.715Z,1560
2018-09-03T06:46:34.478Z,1864
2018-09-03T06:47:36.384Z,2472
2018-09-03T06:48:38.229Z,3332
2018-09-03T06:49:39.867Z,3716
2018-09-03T06:50:41.832Z,3332
2018-09-03T06:51:43.468Z,2668
2018-09-03T06:52:45.447Z,2388
2018-09-03T06:53:47.148Z,2288
2018-09-03T06:54:49.123Z,2376
2018-09-03T06:55:51.358Z,2240
2018-09-03T06:56:53.038Z,2116
2018-09-03T06:57:55.343Z,2232
2018-09-03T06:58:57.550Z,2224
2018-09-03T06:59:59.572Z,2124
2018-09-03T07:01:01.632Z,2064
2018-09-03T07:02:03.892Z,2160
2018-09-03T07:03:06.068Z,2276
2018-09-03T07:04:08.264Z,2316
2018-09-03T07:05:10.141Z,2396
2018-09-03T07:06:12.426Z,2424
2018-09-03T07:07:14.375Z,2296
2018-09-03T07:08:16.643Z,2108
2018-09-03T07:09:18.517Z,1912
2018-09-03T07:10:21.302Z,1800
2018-09-03T07:11:23.703Z,1792
2018-09-03T07:12:25.988Z,1736
2018-09-03T07:13:28.040Z,1896
2018-09-03T07:14:30.128Z,2084
2018-09-03T07:15:32.042Z,2088
2018-09-03T07:16:33.895Z,2060
2018-09-03T07:17:36.024Z,2024
2018-09-03T07:18:38.026Z,2208
2018-09-03T07:19:40.284Z,2344
2018-09-03T07:20:42.318Z,2376
2018-09-03T07:21:44.402Z,2564
2018-09-03T07:22:46.435Z,3104
2018-09-03T07:23:48.464Z,3732
2018-09-03T07:24:50.448Z,3920
2018-09-03T07:25:52.546Z,3508
2018-09-03T07:26:54.489Z,3124
2018-09-03T07:27:56.429Z,3836
2018-09-03T07:28:58.481Z,5708
2018-09-03T07:30:00.475Z,7688
2018-09-03T07:31:02.465Z,8504
2018-09-03T07:32:04.451Z,7764
2018-09-03T07:33:06.665Z,6004
2018-09-03T07:34:08.668Z,5412
2018-09-03T07:35:10.797Z,6040
2018-09-03T07:36:12.769Z,6748
2018-09-03T07:37:14.707Z,7104
2018-09-03T07:38:16.669Z,7504
2018-09-03T07:39:18.710Z,7376
2018-09-03T07:40:20.762Z,6516
2018-09-03T07:41:22.941Z,6268
2018-09-03T07:42:24.897Z,6712
2018-09-03T07:43:26.850Z,7384
2018-09-03T07:44:28.761Z,7940
2018-09-03T07:45:30.811Z,7520
2018-09-03T07:46:32.846Z,6644
2018-09-03T07:47:34.758Z,6544
2018-09-03T07:48:36.847Z,6936
2018-09-03T07:49:38.915Z,7424
2018-09-03T07:50:40.958Z,7664
2018-09-03T07:51:43.008Z,7500
2018-09-03T07:52:45.101Z,6940
2018-09-03T07:53:47.192Z,6604
2018-09-03T07:54:49.402Z,6644
2018-09-03T07:55:51.422Z,7056
2018-09-03T07:56:53.412Z,7396
2018-09-03T07:57:55.467Z,8148
2018-09-03T07:58:57.641Z,8252
2018-09-03T07:59:59.655Z,7688
2018-09-03T08:01:02.091Z,7128
2018-09-03T08:02:04.032Z,6868
2018-09-03T08:03:05.994Z,6720
2018-09-03T08:04:07.970Z,6932
2018-09-03T08:05:10.015Z,7400
2018-09-03T08:06:12.095Z,7496
2018-09-03T08:07:14.144Z,7320
2018-09-03T08:08:16.152Z,6956
2018-09-03T08:09:18.141Z,6620
2018-09-03T08:10:19.994Z,6420
2018-09-03T08:11:22.041Z,6220
2018-09-03T08:12:24.219Z,6124
2018-09-03T08:13:26.002Z,6184
2018-09-03T08:14:27.861Z,6036
2018-09-03T08:15:29.827Z,5956
2018-09-03T08:16:31.743Z,5696
2018-09-03T08:17:33.757Z,4992
2018-09-03T08:18:35.624Z,4316
2018-09-03T08:19:37.497Z,3996
2018-09-03T08:20:39.702Z,4028
2018-09-03T08:21:41.635Z,4220
2018-09-03T08:22:43.680Z,4820
2018-09-03T08:23:45.555Z,5976
2018-09-03T08:24:47.371Z,7456
2018-09-03T08:25:49.277Z,8732
2018-09-03T08:26:51.169Z,9724
2018-09-03T08:27:53.009Z,10784
2018-09-03T08:28:54.887Z,11172
2018-09-03T08:29:56.836Z,10888
2018-09-03T08:30:58.572Z,10804
2018-09-03T08:32:00.499Z,11364
2018-09-03T08:33:02.830Z,12376
2018-09-03T08:34:04.944Z,13380
2018-09-03T08:35:06.897Z,13984
2018-09-03T08:36:08.843Z,14440
2018-09-03T08:37:10.963Z,15024
2018-09-03T08:38:13.342Z,16160
2018-09-03T08:39:15.596Z,18208
2018-09-03T08:40:18.025Z,19232
2018-09-03T08:41:19.906Z,19200
2018-09-03T08:42:22.566Z,18080
2018-09-03T08:43:24.924Z,16736
2018-09-03T08:44:27.147Z,14740
2018-09-03T08:45:29.149Z,12896
2018-09-03T08:46:31.140Z,11424
2018-09-03T08:47:32.987Z,9996
2018-09-03T08:48:35.276Z,8544
2018-09-03T08:49:37.206Z,7368
2018-09-03T08:50:39.099Z,6760
2018-09-03T08:51:40.867Z,6520
2018-09-03T08:52:42.913Z,6620
2018-09-03T08:53:45.200Z,7328
2018-09-03T08:54:47.128Z,8328
2018-09-03T08:55:49.081Z,8968
2018-09-03T08:56:51.004Z,9036
2018-09-03T08:57:53.026Z,8604
2018-09-03T08:58:55.058Z,8148
2018-09-03T08:59:57.051Z,8252
2018-09-03T09:00:59.014Z,8576
2018-09-03T09:02:01.378Z,8480
2018-09-03T09:03:03.551Z,8348
2018-09-03T09:04:05.378Z,8380
2018-09-03T09:05:07.254Z,8720
2018-09-03T09:06:09.082Z,9328
2018-09-03T09:07:10.876Z,9832
2018-09-03T09:08:12.680Z,10092
2018-09-03T09:09:14.957Z,10432
2018-09-03T09:10:16.738Z,11148
2018-09-03T09:11:19.000Z,12056
2018-09-03T09:12:20.982Z,13132
2018-09-03T09:13:23.096Z,15160
2018-09-03T09:14:25.077Z,18112
2018-09-03T09:15:27.278Z,20832
2018-09-03T09:16:29.085Z,22656
2018-09-03T09:17:31.120Z,24352
2018-09-03T09:18:32.966Z,28608
2018-09-03T09:19:35.080Z,27744
2018-09-03T09:20:36.971Z,32160
2018-09-03T09:21:38.739Z,27584
2018-09-03T09:22:40.528Z,26816
2018-09-03T09:23:42.417Z,28288
2018-09-03T09:24:44.465Z,28608
2018-09-03T09:25:46.714Z,25344
2018-09-03T09:26:48.528Z,23072
2018-09-03T09:27:50.397Z,22432
2018-09-03T09:28:52.220Z,25664
2018-09-03T09:29:54.235Z,23808
2018-09-03T09:30:56.302Z,20160
2018-09-03T09:31:58.529Z,16864
2018-09-03T09:33:00.343Z,15284
2018-09-03T09:34:02.448Z,14868
2018-09-03T09:35:04.217Z,14752
2018-09-03T09:36:06.529Z,14828
2018-09-03T09:37:08.701Z,14740
2018-09-03T09:38:10.640Z,14664
2018-09-03T09:39:12.577Z,14420
2018-09-03T09:40:14.359Z,13888
2018-09-03T09:41:16.103Z,13272
2018-09-03T09:42:17.942Z,12352
2018-09-03T09:43:20.082Z,11272
2018-09-03T09:44:22.217Z,10268
2018-09-03T09:45:24.196Z,9272
2018-09-03T09:46:25.947Z,8340
2018-09-03T09:47:27.844Z,7732
2018-09-03T09:48:30.082Z,7080
2018-09-03T09:49:32.233Z,7184
2018-09-03T09:50:34.542Z,8156
2018-09-03T09:51:36.844Z,8492
2018-09-03T09:52:38.991Z,7884
2018-09-03T09:53:41.875Z,7616
2018-09-03T09:54:43.685Z,8160
2018-09-03T09:55:45.609Z,9084
2018-09-03T09:56:47.885Z,10004
2018-09-03T09:57:49.747Z,10612
2018-09-03T09:58:52.040Z,10608
2018-09-03T09:59:54.299Z,10080
2018-09-03T10:00:56.161Z,9856
2018-09-03T10:01:58.208Z,10388
2018-09-03T10:03:00.118Z,10900
2018-09-03T10:04:02.335Z,10316
2018-09-03T10:05:04.358Z,8856
2018-09-03T10:06:06.446Z,8052
2018-09-03T10:07:08.531Z,8184
2018-09-03T10:08:10.304Z,8544
2018-09-03T10:09:12.558Z,8520
2018-09-03T10:10:14.736Z,8364
2018-09-03T10:11:16.425Z,8252
2018-09-03T10:12:18.652Z,8228
2018-09-03T10:13:20.679Z,8656
2018-09-03T10:14:22.854Z,9260
2018-09-03T10:15:24.551Z,9540
2018-09-03T10:16:26.795Z,9256
2018-09-03T10:17:28.745Z,9104
2018-09-03T10:18:30.592Z,9972
2018-09-03T10:19:32.763Z,11472
2018-09-03T10:20:34.850Z,12052
2018-09-03T10:21:36.737Z,11724
2018-09-03T10:22:38.875Z,11616
2018-09-03T10:23:40.806Z,11320
2018-09-03T10:24:42.470Z,10876
2018-09-03T10:25:44.429Z,10228
2018-09-03T10:26:46.477Z,9792
2018-09-03T10:27:48.189Z,9884
2018-09-03T10:28:50.123Z,10088
2018-09-03T10:29:51.864Z,9948
2018-09-03T10:30:54.116Z,10024
2018-09-03T10:31:55.826Z,10532
2018-09-03T10:32:57.629Z,10988
2018-09-03T10:33:59.335Z,11472
2018-09-03T10:35:01.219Z,12044
2018-09-03T10:36:03.123Z,13140
2018-09-03T10:37:05.017Z,14712
2018-09-03T10:38:07.234Z,15520
2018-09-03T10:39:09.193Z,14644
2018-09-03T10:40:11.345Z,14544
2018-09-03T10:41:13.173Z,14960
2018-09-03T10:42:15.022Z,14176
2018-09-03T10:43:16.782Z,12864
2018-09-03T10:44:18.429Z,12468
2018-09-03T10:45:20.229Z,12756
2018-09-03T10:46:22.149Z,12588
2018-09-03T10:47:24.310Z,12232
2018-09-03T10:48:26.193Z,12072
2018-09-03T10:49:28.383Z,12604
2018-09-03T10:50:30.271Z,13980
2018-09-03T10:51:32.029Z,15124
2018-09-03T10:52:33.814Z,15632
2018-09-03T10:53:35.960Z,15468
2018-09-03T10:54:37.819Z,15368
2018-09-03T10:55:39.991Z,13804
2018-09-03T10:56:41.764Z,9648
2018-09-03T10:57:43.963Z,6660
2018-09-03T10:58:45.891Z,6384
2018-09-03T10:59:48.090Z,6868
2018-09-03T11:00:49.740Z,7220
2018-09-03T11:01:51.926Z,7444
2018-09-03T11:02:53.619Z,7516
2018-09-03T11:03:55.474Z,7664
2018-09-03T11:04:57.362Z,7980
2018-09-03T11:05:59.078Z,8576
2018-09-03T11:07:01.227Z,9184
2018-09-03T11:08:03.461Z,8700
2018-09-03T11:09:05.218Z,7732
2018-09-03T11:10:07.430Z,7652
2018-09-03T11:11:09.251Z,8152
2018-09-03T11:12:11.032Z,8792
2018-09-03T11:13:12.985Z,9292
2018-09-03T11:14:14.739Z,9876
2018-09-03T11:15:16.526Z,10796
2018-09-03T11:16:18.400Z,11588
2018-09-03T11:17:20.271Z,11716
2018-09-03T11:18:22.146Z,11596
2018-09-03T11:19:24.219Z,10776
2018-09-03T11:20:25.882Z,11120
2018-09-03T11:21:27.699Z,13500
2018-09-03T11:22:29.563Z,15316
2018-09-03T11:23:31.261Z,14844
2018-09-03T11:24:33.022Z,13720
2018-09-03T11:25:34.789Z,12692
2018-09-03T11:26:36.480Z,11100
2018-09-03T11:27:38.357Z,9260
2018-09-03T11:28:40.125Z,8168
2018-09-03T11:29:41.914Z,7928
2018-09-03T11:30:44.014Z,8212
2018-09-03T11:31:46.263Z,8520
2018-09-03T11:32:48.333Z,8548
2018-09-03T11:33:50.057Z,8340
2018-09-03T11:34:51.835Z,8556
2018-09-03T11:35:53.884Z,8848
2018-09-03T11:36:55.748Z,8796
2018-09-03T11:37:57.830Z,8684
2018-09-03T11:38:59.538Z,9060
2018-09-03T11:40:01.386Z,9812
2018-09-03T11:41:03.596Z,10084
2018-09-03T11:42:05.505Z,9596
2018-09-03T11:43:07.382Z,9032
2018-09-03T11:44:09.219Z,8732
2018-09-03T11:45:11.293Z,8684
2018-09-03T11:46:13.098Z,8904
2018-09-03T11:47:15.197Z,9360
2018-09-03T11:48:16.998Z,9868
2018-09-03T11:49:18.789Z,10144
2018-09-03T11:50:20.591Z,10444
2018-09-03T11:51:22.480Z,10568
2018-09-03T11:52:24.441Z,10512
2018-09-03T11:53:26.609Z,10860
2018-09-03T11:54:28.329Z,11692
2018-09-03T11:55:30.174Z,12924
2018-09-03T11:56:31.915Z,15016
2018-09-03T11:57:33.917Z,17888
2018-09-03T11:58:35.801Z,18784
2018-09-03T11:59:37.667Z,18560
2018-09-03T12:00:39.747Z,19136
2018-09-03T12:01:41.692Z,20064
2018-09-03T12:02:43.525Z,21056
2018-09-03T12:03:45.290Z,21472
2018-09-03T12:04:47.392Z,21472
2018-09-03T12:05:49.447Z,21472
2018-09-03T12:06:51.333Z,21120
2018-09-03T12:07:53.128Z,20832
2018-09-03T12:08:55.223Z,20416
2018-09-03T12:09:56.955Z,20128
2018-09-03T12:10:58.768Z,19904
2018-09-03T12:12:00.586Z,19712
2018-09-03T12:13:02.636Z,19200
2018-09-03T12:14:04.422Z,18560
2018-09-03T12:15:06.256Z,18016
2018-09-03T12:16:08.027Z,17568
2018-09-03T12:17:10.672Z,17056
2018-09-03T12:18:12.698Z,16704
2018-09-03T12:19:14.518Z,16544
2018-09-03T12:20:16.336Z,16576
2018-09-03T12:21:18.398Z,16672
2018-09-03T12:22:20.368Z,16576
2018-09-03T12:23:22.548Z,16320
2018-09-03T12:24:24.436Z,16256
2018-09-03T12:25:26.392Z,16768
2018-09-03T12:26:28.378Z,17760
2018-09-03T12:27:30.160Z,18720
2018-09-03T12:28:32.265Z,19424
2018-09-03T12:29:34.095Z,20864
2018-09-03T12:30:35.972Z,20736
2018-09-03T12:31:37.770Z,19520
2018-09-03T12:32:39.609Z,18752
2018-09-03T12:33:41.363Z,17984
2018-09-03T12:34:43.228Z,17216
2018-09-03T12:35:44.924Z,16512
2018-09-03T12:36:47.097Z,15760
2018-09-03T12:37:48.914Z,15216
2018-09-03T12:38:50.995Z,14784
2018-09-03T12:39:52.792Z,14504
2018-09-03T12:40:54.623Z,14332
2018-09-03T12:41:56.694Z,14216
2018-09-03T12:42:58.764Z,14156
2018-09-03T12:44:00.545Z,14168
2018-09-03T12:45:02.318Z,14212
2018-09-03T12:46:04.133Z,14324
2018-09-03T12:47:05.978Z,14608
2018-09-03T12:48:07.811Z,15068
2018-09-03T12:49:09.763Z,15720
2018-09-03T12:50:11.984Z,16576
2018-09-03T12:51:13.819Z,17344
2018-09-03T12:52:15.995Z,18176
2018-09-03T12:53:18.093Z,18880
2018-09-03T12:54:19.904Z,19712
2018-09-03T12:55:21.742Z,20800
2018-09-03T12:56:23.570Z,22368
2018-09-03T12:57:25.365Z,23648
2018-09-03T12:58:27.224Z,25184
2018-09-03T12:59:29.484Z,28384
2018-09-03T13:00:38.672Z,32032
2018-09-03T13:01:33.594Z,43392
2018-09-03T13:02:39.420Z,35104
2018-09-03T13:03:37.215Z,44544
2018-09-03T13:04:39.053Z,41536
2018-09-03T13:05:40.909Z,30976
2018-09-03T13:06:42.730Z,28960
2018-09-03T13:07:44.555Z,27744
2018-09-03T13:08:46.718Z,26304
2018-09-03T13:09:48.984Z,25472
2018-09-03T13:10:50.824Z,24288
2018-09-03T13:11:52.630Z,22720
2018-09-03T13:12:54.427Z,21440
2018-09-03T13:13:56.227Z,20512
2018-09-03T13:14:57.944Z,19744
2018-09-03T13:16:00.264Z,19072
2018-09-03T13:17:02.580Z,18144
2018-09-03T13:18:04.935Z,16800
2018-09-03T13:19:06.747Z,15384
2018-09-03T13:20:08.717Z,14156
2018-09-03T13:21:10.470Z,13172
2018-09-03T13:22:12.759Z,12364
2018-09-03T13:23:14.552Z,11568
2018-09-03T13:24:16.420Z,11076
2018-09-03T13:25:18.297Z,10992
2018-09-03T13:26:20.168Z,11088
2018-09-03T13:27:22.116Z,11052
2018-09-03T13:28:24.304Z,11068
2018-09-03T13:29:26.540Z,11148
2018-09-03T13:30:28.542Z,11164
2018-09-03T13:31:30.386Z,10956
2018-09-03T13:32:32.216Z,10864
2018-09-03T13:33:34.127Z,10880
2018-09-03T13:34:35.920Z,10660
2018-09-03T13:35:38.267Z,10392
2018-09-03T13:36:41.210Z,10496
2018-09-03T13:37:43.415Z,10608
2018-09-03T13:38:45.320Z,10736
2018-09-03T13:39:47.212Z,11092
2018-09-03T13:40:49.023Z,11584
2018-09-03T13:41:50.981Z,12248
2018-09-03T13:42:53.263Z,12932
2018-09-03T13:43:55.460Z,13500
2018-09-03T13:44:57.246Z,14112
2018-09-03T13:45:59.033Z,14436
2018-09-03T13:47:01.019Z,14384
2018-09-03T13:48:02.850Z,14128
2018-09-03T13:49:05.060Z,13912
2018-09-03T13:50:06.944Z,14004
2018-09-03T13:51:08.772Z,14500
2018-09-03T13:52:10.726Z,14324
2018-09-03T13:53:12.647Z,13720
2018-09-03T13:54:14.880Z,13064
2018-09-03T13:55:16.776Z,12256
2018-09-03T13:56:18.971Z,11412
2018-09-03T13:57:20.838Z,10436
2018-09-03T13:58:22.686Z,9468
2018-09-03T13:59:24.941Z,8588
2018-09-03T14:00:26.868Z,7680
2018-09-03T14:01:29.081Z,6900
2018-09-03T14:02:31.057Z,6344
2018-09-03T14:03:33.380Z,6052
2018-09-03T14:04:35.223Z,6084
2018-09-03T14:05:37.403Z,6220
2018-09-03T14:06:39.610Z,6352